PWSweather.com
Personal Weather Stations
Station Observations

SkegnessGB

Lat: 53.147585, Lon: 0.345774

Elevation: 18

Station Type: Fine Offset WH3080

http://www.skegnessweather.info/

High Low Average
Temperature 64.0°F17.8°C 52.2°F11.2°C 56.2°F13.4°C
Dew Point 56.1°F13.4°C 47.2°F8.4°C 51.1°F10.6°C
Winds 17.2 mph 27.7 kmh 3.9 mph 6.3 kmh 10.0 mph S16.1 kmh S
Wind Gusts 20.9 mph33.6 kmh 4.9 mph7.9 kmh 12.0 mph19.3 kmh
Humidity 90% 64% 83%
Pressure 29.61 in1002.7 mb 29.43 in996.6 mb -
Precipitation 0.13 in3.3 mm - -
Hour Temp Dew Point Humidity Winds Wind Gusts Pressure Precip Precip Rate Daily Precip Total
12:00 AM 55.4°F13.0°C 50.6°F10.3°C 84% 8.8 mph S14.2 kmh S 10.1 mph16.3 kmh 29.57 in1001.4 mb 0.00 in0.0 mm 0.00 in0.0 mm 0.00 in0.0 mm
12:10 AM 55.6°F13.1°C 50.8°F10.4°C 84% 11.2 mph SSE18.0 kmh SSE 8.4 mph13.5 kmh 29.57 in1001.4 mb 0.00 in0.0 mm 0.00 in0.0 mm 0.00 in0.0 mm
12:20 AM 55.6°F13.1°C 50.8°F10.4°C 84% 8.2 mph WSW13.2 kmh WSW 9.1 mph14.6 kmh 29.57 in1001.4 mb 0.00 in0.0 mm 0.00 in0.0 mm 0.00 in0.0 mm
12:30 AM 55.6°F13.1°C 50.8°F10.4°C 84% 9.1 mph SSW14.6 kmh SSW 10.8 mph17.4 kmh 29.57 in1001.4 mb 0.00 in0.0 mm 0.00 in0.0 mm 0.00 in0.0 mm
12:40 AM 55.6°F13.1°C 50.8°F10.4°C 84% 11.7 mph SSW18.8 kmh SSW 13.3 mph21.4 kmh 29.57 in1001.4 mb 0.00 in0.0 mm 0.00 in0.0 mm 0.00 in0.0 mm
12:50 AM 55.4°F13.0°C 50.6°F10.3°C 84% 9.0 mph SSW14.5 kmh SSW 10.1 mph16.3 kmh 29.57 in1001.4 mb 0.00 in0.0 mm 0.00 in0.0 mm 0.00 in0.0 mm
01:00 AM 55.4°F13.0°C 50.6°F10.3°C 84% 9.4 mph SW15.1 kmh SW 9.1 mph14.6 kmh 29.57 in1001.4 mb 0.00 in0.0 mm 0.00 in0.0 mm 0.00 in0.0 mm
01:10 AM 55.4°F13.0°C 50.6°F10.3°C 84% 7.6 mph S12.2 kmh S 9.1 mph14.6 kmh 29.57 in1001.4 mb 0.00 in0.0 mm 0.00 in0.0 mm 0.00 in0.0 mm
01:20 AM 55.4°F13.0°C 50.6°F10.3°C 84% 9.8 mph S15.8 kmh S 10.8 mph17.4 kmh 29.57 in1001.4 mb 0.00 in0.0 mm 0.00 in0.0 mm 0.00 in0.0 mm
01:30 AM 55.4°F13.0°C 50.6°F10.3°C 84% 10.6 mph SSE17.1 kmh SSE 13.3 mph21.4 kmh 29.57 in1001.4 mb 0.00 in0.0 mm 0.00 in0.0 mm 0.00 in0.0 mm
01:40 AM 55.4°F13.0°C 50.6°F10.3°C 84% 9.8 mph S15.8 kmh S 12.5 mph20.1 kmh 29.57 in1001.4 mb 0.00 in0.0 mm 0.00 in0.0 mm 0.00 in0.0 mm
01:50 AM 55.4°F13.0°C 50.6°F10.3°C 84% 10.7 mph SSW17.2 kmh SSW 16.0 mph25.7 kmh 29.57 in1001.4 mb 0.00 in0.0 mm 0.00 in0.0 mm 0.00 in0.0 mm
02:00 AM 55.4°F13.0°C 50.6°F10.3°C 84% 10.8 mph SSE17.4 kmh SSE 10.8 mph17.4 kmh 29.56 in1001.0 mb 0.00 in0.0 mm 0.00 in0.0 mm 0.00 in0.0 mm
02:10 AM 55.2°F12.9°C 50.5°F10.3°C 84% 11.6 mph SSE18.7 kmh SSE 13.3 mph21.4 kmh 29.56 in1001.0 mb 0.00 in0.0 mm 0.00 in0.0 mm 0.00 in0.0 mm
02:20 AM 55.0°F12.8°C 50.3°F10.2°C 84% 10.8 mph S17.4 kmh S 11.8 mph19.0 kmh 29.56 in1001.0 mb 0.00 in0.0 mm 0.00 in0.0 mm 0.00 in0.0 mm
02:30 AM 54.9°F12.7°C 50.4°F10.2°C 85% 9.9 mph SSE15.9 kmh SSE 11.8 mph19.0 kmh 29.57 in1001.4 mb 0.00 in0.0 mm 0.00 in0.0 mm 0.00 in0.0 mm
02:40 AM 54.9°F12.7°C 50.4°F10.2°C 85% 10.8 mph S17.4 kmh S 10.8 mph17.4 kmh 29.56 in1001.0 mb 0.00 in0.0 mm 0.00 in0.0 mm 0.00 in0.0 mm
02:50 AM 54.9°F12.7°C 50.4°F10.2°C 85% 9.6 mph S15.4 kmh S 8.4 mph13.5 kmh 29.57 in1001.4 mb 0.00 in0.0 mm 0.00 in0.0 mm 0.00 in0.0 mm
03:00 AM 54.9°F12.7°C 50.4°F10.2°C 85% 10.0 mph S16.1 kmh S 14.3 mph23.0 kmh 29.57 in1001.4 mb 0.00 in0.0 mm 0.00 in0.0 mm 0.00 in0.0 mm
03:10 AM 54.9°F12.7°C 50.8°F10.4°C 86% 14.6 mph S23.5 kmh S 15.0 mph24.1 kmh 29.56 in1001.0 mb 0.00 in0.0 mm 0.00 in0.0 mm 0.00 in0.0 mm
03:20 AM 55.0°F12.8°C 50.9°F10.5°C 86% 11.5 mph S18.5 kmh S 10.8 mph17.4 kmh 29.56 in1001.0 mb 0.00 in0.0 mm 0.00 in0.0 mm 0.00 in0.0 mm
03:30 AM 55.0°F12.8°C 50.9°F10.5°C 86% 12.3 mph S19.8 kmh S 13.3 mph21.4 kmh 29.56 in1001.0 mb 0.00 in0.0 mm 0.00 in0.0 mm 0.00 in0.0 mm
03:40 AM 55.2°F12.9°C 51.1°F10.6°C 86% 13.1 mph SSE21.1 kmh SSE 14.3 mph23.0 kmh 29.55 in1000.7 mb 0.00 in0.0 mm 0.00 in0.0 mm 0.00 in0.0 mm
03:50 AM 55.2°F12.9°C 51.1°F10.6°C 86% 11.9 mph S19.2 kmh S 13.3 mph21.4 kmh 29.55 in1000.7 mb 0.00 in0.0 mm 0.00 in0.0 mm 0.00 in0.0 mm
04:00 AM 55.2°F12.9°C 51.1°F10.6°C 86% 11.2 mph SE18.0 kmh SE 13.3 mph21.4 kmh 29.55 in1000.7 mb 0.00 in0.0 mm 0.00 in0.0 mm 0.00 in0.0 mm
04:10 AM 55.2°F12.9°C 51.1°F10.6°C 86% 11.7 mph SW18.8 kmh SW 9.1 mph14.6 kmh 29.56 in1001.0 mb 0.00 in0.0 mm 0.00 in0.0 mm 0.00 in0.0 mm
04:20 AM 55.2°F12.9°C 51.1°F10.6°C 86% 10.9 mph S17.5 kmh S 12.5 mph20.1 kmh 29.55 in1000.7 mb 0.00 in0.0 mm 0.00 in0.0 mm 0.00 in0.0 mm
04:30 AM 55.2°F12.9°C 51.1°F10.6°C 86% 12.0 mph NW19.3 kmh NW 12.5 mph20.1 kmh 29.56 in1001.0 mb 0.00 in0.0 mm 0.00 in0.0 mm 0.00 in0.0 mm
04:40 AM 55.2°F12.9°C 50.8°F10.4°C 85% 11.0 mph S17.7 kmh S 12.5 mph20.1 kmh 29.55 in1000.7 mb 0.00 in0.0 mm 0.00 in0.0 mm 0.00 in0.0 mm
04:50 AM 55.0°F12.8°C 50.6°F10.3°C 85% 11.1 mph S17.9 kmh S 13.3 mph21.4 kmh 29.55 in1000.7 mb 0.00 in0.0 mm 0.00 in0.0 mm 0.00 in0.0 mm
05:00 AM 55.0°F12.8°C 50.6°F10.3°C 85% 10.6 mph S17.1 kmh S 10.8 mph17.4 kmh 29.55 in1000.7 mb 0.00 in0.0 mm 0.00 in0.0 mm 0.00 in0.0 mm
05:10 AM 54.9°F12.7°C 50.4°F10.2°C 85% 11.0 mph S17.7 kmh S 10.8 mph17.4 kmh 29.55 in1000.7 mb 0.00 in0.0 mm 0.00 in0.0 mm 0.00 in0.0 mm
05:20 AM 54.9°F12.7°C 50.8°F10.4°C 86% 10.6 mph S17.1 kmh S 12.5 mph20.1 kmh 29.55 in1000.7 mb 0.00 in0.0 mm 0.00 in0.0 mm 0.00 in0.0 mm
05:30 AM 54.7°F12.6°C 50.6°F10.3°C 86% 10.2 mph S16.4 kmh S 11.8 mph19.0 kmh 29.55 in1000.7 mb 0.00 in0.0 mm 0.00 in0.0 mm 0.00 in0.0 mm
05:40 AM 54.7°F12.6°C 50.6°F10.3°C 86% 10.9 mph SW17.5 kmh SW 12.5 mph20.1 kmh 29.55 in1000.7 mb 0.00 in0.0 mm 0.00 in0.0 mm 0.00 in0.0 mm
05:50 AM 54.7°F12.6°C 50.6°F10.3°C 86% 8.4 mph S13.5 kmh S 10.8 mph17.4 kmh 29.55 in1000.7 mb 0.00 in0.0 mm 0.00 in0.0 mm 0.00 in0.0 mm
06:00 AM 54.7°F12.6°C 50.6°F10.3°C 86% 8.8 mph S14.2 kmh S 10.8 mph17.4 kmh 29.55 in1000.7 mb 0.00 in0.0 mm 0.00 in0.0 mm 0.00 in0.0 mm
06:10 AM 54.7°F12.6°C 50.6°F10.3°C 86% 10.4 mph WSW16.7 kmh WSW 10.1 mph16.3 kmh 29.55 in1000.7 mb 0.00 in0.0 mm 0.00 in0.0 mm 0.00 in0.0 mm
06:20 AM 54.7°F12.6°C 50.6°F10.3°C 86% 11.5 mph S18.5 kmh S 14.3 mph23.0 kmh 29.55 in1000.7 mb 0.00 in0.0 mm 0.00 in0.0 mm 0.00 in0.0 mm
06:30 AM 54.7°F12.6°C 50.9°F10.5°C 87% 9.6 mph S15.4 kmh S 10.1 mph16.3 kmh 29.54 in1000.3 mb 0.00 in0.0 mm 0.00 in0.0 mm 0.00 in0.0 mm
06:40 AM 54.9°F12.7°C 50.8°F10.4°C 86% 9.6 mph S15.4 kmh S 10.1 mph16.3 kmh 29.54 in1000.3 mb 0.00 in0.0 mm 0.00 in0.0 mm 0.00 in0.0 mm
06:50 AM 54.9°F12.7°C 50.8°F10.4°C 86% 11.2 mph SSE18.0 kmh SSE 10.8 mph17.4 kmh 29.54 in1000.3 mb 0.00 in0.0 mm 0.00 in0.0 mm 0.00 in0.0 mm
07:00 AM 55.2°F12.9°C 51.1°F10.6°C 86% 10.9 mph SE17.5 kmh SE 10.1 mph16.3 kmh 29.54 in1000.3 mb 0.00 in0.0 mm 0.00 in0.0 mm 0.00 in0.0 mm
07:10 AM 55.4°F13.0°C 51.0°F10.6°C 85% 10.5 mph S16.9 kmh S 15.0 mph24.1 kmh 29.54 in1000.3 mb 0.00 in0.0 mm 0.00 in0.0 mm 0.00 in0.0 mm
07:20 AM 55.6°F13.1°C 51.1°F10.6°C 85% 10.5 mph S16.9 kmh S 10.8 mph17.4 kmh 29.54 in1000.3 mb 0.00 in0.0 mm 0.00 in0.0 mm 0.00 in0.0 mm
07:30 AM 55.8°F13.2°C 51.0°F10.6°C 84% 10.8 mph SSW17.4 kmh SSW 12.5 mph20.1 kmh 29.54 in1000.3 mb 0.00 in0.0 mm 0.00 in0.0 mm 0.00 in0.0 mm
07:40 AM 55.9°F13.3°C 50.9°F10.5°C 83% 11.9 mph SW19.2 kmh SW 16.0 mph25.7 kmh 29.54 in1000.3 mb 0.00 in0.0 mm 0.00 in0.0 mm 0.00 in0.0 mm
07:50 AM 56.3°F13.5°C 51.2°F10.7°C 83% 13.2 mph SW21.2 kmh SW 15.0 mph24.1 kmh 29.54 in1000.3 mb 0.00 in0.0 mm 0.00 in0.0 mm 0.00 in0.0 mm
08:00 AM 56.7°F13.7°C 51.2°F10.7°C 82% 15.9 mph SSW25.6 kmh SSW 18.5 mph29.8 kmh 29.54 in1000.3 mb 0.00 in0.0 mm 0.00 in0.0 mm 0.00 in0.0 mm
08:10 AM 56.8°F13.8°C 51.1°F10.6°C 81% 15.4 mph SE24.8 kmh SE 14.3 mph23.0 kmh 29.54 in1000.3 mb 0.00 in0.0 mm 0.00 in0.0 mm 0.00 in0.0 mm
08:20 AM 57.0°F13.9°C 51.2°F10.7°C 81% 11.9 mph SSW19.2 kmh SSW 15.0 mph24.1 kmh 29.54 in1000.3 mb 0.00 in0.0 mm 0.00 in0.0 mm 0.00 in0.0 mm
08:30 AM 57.6°F14.2°C 51.8°F11.0°C 81% 12.4 mph SSW20.0 kmh SSW 13.3 mph21.4 kmh 29.54 in1000.3 mb 0.00 in0.0 mm 0.00 in0.0 mm 0.00 in0.0 mm
08:40 AM 57.7°F14.3°C 51.6°F10.9°C 80% 14.8 mph SSW23.8 kmh SSW 16.0 mph25.7 kmh 29.54 in1000.3 mb 0.00 in0.0 mm 0.00 in0.0 mm 0.00 in0.0 mm
08:50 AM 57.9°F14.4°C 51.8°F11.0°C 80% 11.8 mph SSE19.0 kmh SSE 14.3 mph23.0 kmh 29.53 in1000.0 mb 0.00 in0.0 mm 0.00 in0.0 mm 0.00 in0.0 mm
09:00 AM 58.5°F14.7°C 52.3°F11.3°C 80% 12.4 mph SW20.0 kmh SW 14.3 mph23.0 kmh 29.54 in1000.3 mb 0.00 in0.0 mm 0.00 in0.0 mm 0.00 in0.0 mm
09:10 AM 59.4°F15.2°C 52.8°F11.6°C 79% 12.8 mph SSW20.6 kmh SSW 13.3 mph21.4 kmh 29.54 in1000.3 mb 0.00 in0.0 mm 0.00 in0.0 mm 0.00 in0.0 mm
09:20 AM 59.9°F15.5°C 52.3°F11.3°C 76% 13.6 mph SSW21.9 kmh SSW 15.0 mph24.1 kmh 29.54 in1000.3 mb 0.00 in0.0 mm 0.00 in0.0 mm 0.00 in0.0 mm
09:30 AM 60.6°F15.9°C 52.6°F11.4°C 75% 12.1 mph SSW19.5 kmh SSW 15.0 mph24.1 kmh 29.54 in1000.3 mb 0.00 in0.0 mm 0.00 in0.0 mm 0.00 in0.0 mm
09:40 AM 59.2°F15.1°C 52.3°F11.3°C 78% 14.8 mph S23.8 kmh S 16.7 mph26.9 kmh 29.54 in1000.3 mb 0.00 in0.0 mm 0.00 in0.0 mm 0.00 in0.0 mm
09:50 AM 59.2°F15.1°C 53.0°F11.7°C 80% 13.0 mph SSE20.9 kmh SSE 14.3 mph23.0 kmh 29.53 in1000.0 mb 0.00 in0.0 mm 0.00 in0.0 mm 0.00 in0.0 mm
10:00 AM 59.9°F15.5°C 53.4°F11.9°C 79% 11.5 mph SE18.5 kmh SE 15.0 mph24.1 kmh 29.53 in1000.0 mb 0.00 in0.0 mm 0.00 in0.0 mm 0.00 in0.0 mm
10:10 AM 61.7°F16.5°C 54.1°F12.3°C 76% 14.8 mph S23.8 kmh S 14.3 mph23.0 kmh 29.53 in1000.0 mb 0.00 in0.0 mm 0.00 in0.0 mm 0.00 in0.0 mm
10:20 AM 61.7°F16.5°C 53.0°F11.7°C 73% 16.3 mph S26.2 kmh S 17.5 mph28.2 kmh 29.52 in999.7 mb 0.00 in0.0 mm 0.00 in0.0 mm 0.00 in0.0 mm
10:30 AM 61.9°F16.6°C 52.8°F11.6°C 72% 14.0 mph S22.5 kmh S 16.7 mph26.9 kmh 29.52 in999.7 mb 0.00 in0.0 mm 0.00 in0.0 mm 0.00 in0.0 mm
10:40 AM 61.9°F16.6°C 52.8°F11.6°C 72% 15.7 mph S25.3 kmh S 15.0 mph24.1 kmh 29.52 in999.7 mb 0.00 in0.0 mm 0.00 in0.0 mm 0.00 in0.0 mm
10:50 AM 61.5°F16.4°C 52.8°F11.6°C 73% 15.2 mph SSW24.5 kmh SSW 15.0 mph24.1 kmh 29.52 in999.7 mb 0.00 in0.0 mm 0.00 in0.0 mm 0.00 in0.0 mm
11:00 AM 61.9°F16.6°C 53.1°F11.7°C 73% 12.7 mph S20.4 kmh S 14.3 mph23.0 kmh 29.52 in999.7 mb 0.00 in0.0 mm 0.00 in0.0 mm 0.00 in0.0 mm
11:10 AM 61.7°F16.5°C 53.3°F11.8°C 74% 14.9 mph SW24.0 kmh SW 16.0 mph25.7 kmh 29.52 in999.7 mb 0.00 in0.0 mm 0.00 in0.0 mm 0.00 in0.0 mm
11:20 AM 60.6°F15.9°C 52.6°F11.4°C 75% 12.7 mph S20.4 kmh S 15.0 mph24.1 kmh 29.52 in999.7 mb 0.00 in0.0 mm 0.00 in0.0 mm 0.00 in0.0 mm
11:30 AM 59.4°F15.2°C 53.2°F11.8°C 80% 12.8 mph S20.6 kmh S 12.5 mph20.1 kmh 29.52 in999.7 mb 0.00 in0.0 mm 0.00 in0.0 mm 0.00 in0.0 mm
11:40 AM 58.5°F14.7°C 53.3°F11.8°C 83% 12.1 mph SSW19.5 kmh SSW 13.3 mph21.4 kmh 29.52 in999.7 mb 0.01 in0.3 mm 0.06 in1.5 mm 0.01 in0.3 mm
11:50 AM 58.1°F14.5°C 53.6°F12.0°C 85% 12.7 mph S20.4 kmh S 14.3 mph23.0 kmh 29.52 in999.7 mb 0.01 in0.3 mm 0.00 in0.0 mm 0.01 in0.3 mm
12:00 PM 57.9°F14.4°C 54.1°F12.3°C 87% 13.7 mph S22.0 kmh S 16.0 mph25.7 kmh 29.51 in999.3 mb 0.01 in0.3 mm 0.00 in0.0 mm 0.01 in0.3 mm
12:10 PM 58.3°F14.6°C 54.4°F12.4°C 87% 15.0 mph W24.1 kmh W 16.0 mph25.7 kmh 29.51 in999.3 mb 0.01 in0.3 mm 0.00 in0.0 mm 0.01 in0.3 mm
12:20 PM 58.6°F14.8°C 55.1°F12.8°C 88% 14.3 mph S23.0 kmh S 14.3 mph23.0 kmh 29.50 in999.0 mb 0.01 in0.3 mm 0.00 in0.0 mm 0.01 in0.3 mm
12:30 PM 59.0°F15.0°C 55.1°F12.8°C 87% 12.4 mph SSE20.0 kmh SSE 14.3 mph23.0 kmh 29.50 in999.0 mb 0.01 in0.3 mm 0.00 in0.0 mm 0.01 in0.3 mm
12:40 PM 59.0°F15.0°C 54.5°F12.5°C 85% 13.6 mph SSE21.9 kmh SSE 13.3 mph21.4 kmh 29.50 in999.0 mb 0.00 in0.0 mm 0.00 in0.0 mm 0.01 in0.3 mm
12:50 PM 59.0°F15.0°C 54.5°F12.5°C 85% 12.7 mph SSE20.4 kmh SSE 13.3 mph21.4 kmh 29.50 in999.0 mb 0.01 in0.3 mm 0.06 in1.5 mm 0.02 in0.5 mm
01:00 PM 58.8°F14.9°C 54.6°F12.6°C 86% 12.1 mph SSW19.5 kmh SSW 13.3 mph21.4 kmh 29.49 in998.6 mb 0.02 in0.5 mm 0.01 in0.3 mm 0.04 in1.0 mm
01:10 PM 59.4°F15.2°C 55.2°F12.9°C 86% 11.9 mph S19.2 kmh S 14.3 mph23.0 kmh 29.48 in998.3 mb 0.02 in0.5 mm 0.00 in0.0 mm 0.04 in1.0 mm
01:20 PM 60.3°F15.7°C 55.4°F13.0°C 84% 15.4 mph SE24.8 kmh SE 16.7 mph26.9 kmh 29.48 in998.3 mb 0.02 in0.5 mm 0.00 in0.0 mm 0.04 in1.0 mm
01:30 PM 60.4°F15.8°C 54.9°F12.7°C 82% 15.5 mph S24.9 kmh S 15.0 mph24.1 kmh 29.47 in998.0 mb 0.02 in0.5 mm 0.00 in0.0 mm 0.04 in1.0 mm
01:40 PM 61.7°F16.5°C 56.1°F13.4°C 82% 14.7 mph S23.7 kmh S 15.0 mph24.1 kmh 29.47 in998.0 mb 0.02 in0.5 mm 0.00 in0.0 mm 0.04 in1.0 mm
01:50 PM 62.6°F17.0°C 54.9°F12.7°C 76% 15.2 mph SE24.5 kmh SE 15.0 mph24.1 kmh 29.46 in997.6 mb 0.01 in0.3 mm 0.00 in0.0 mm 0.04 in1.0 mm
02:00 PM 63.0°F17.2°C 53.8°F12.1°C 72% 16.3 mph SSW26.2 kmh SSW 20.9 mph33.6 kmh 29.46 in997.6 mb 0.00 in0.0 mm 0.00 in0.0 mm 0.04 in1.0 mm
02:10 PM 62.8°F17.1°C 53.6°F12.0°C 72% 14.4 mph SW23.2 kmh SW 13.3 mph21.4 kmh 29.45 in997.3 mb 0.00 in0.0 mm 0.00 in0.0 mm 0.04 in1.0 mm
02:20 PM 63.1°F17.3°C 53.2°F11.8°C 70% 13.2 mph WSW21.2 kmh WSW 19.2 mph30.9 kmh 29.45 in997.3 mb 0.00 in0.0 mm 0.00 in0.0 mm 0.04 in1.0 mm
02:30 PM 63.3°F17.4°C 52.2°F11.2°C 67% 16.7 mph SSW26.9 kmh SSW 18.5 mph29.8 kmh 29.44 in997.0 mb 0.00 in0.0 mm 0.00 in0.0 mm 0.04 in1.0 mm
02:40 PM 64.0°F17.8°C 52.4°F11.3°C 66% 14.1 mph S22.7 kmh S 16.7 mph26.9 kmh 29.45 in997.3 mb 0.00 in0.0 mm 0.00 in0.0 mm 0.04 in1.0 mm
02:50 PM 63.1°F17.3°C 51.6°F10.9°C 66% 14.3 mph WSW23.0 kmh WSW 18.5 mph29.8 kmh 29.44 in997.0 mb 0.00 in0.0 mm 0.00 in0.0 mm 0.04 in1.0 mm
03:00 PM 63.3°F17.4°C 52.6°F11.4°C 68% 15.7 mph S25.3 kmh S 18.5 mph29.8 kmh 29.44 in997.0 mb 0.00 in0.0 mm 0.00 in0.0 mm 0.04 in1.0 mm
03:10 PM 63.7°F17.6°C 51.3°F10.7°C 64% 17.2 mph SE27.7 kmh SE 19.2 mph30.9 kmh 29.43 in996.6 mb 0.00 in0.0 mm 0.00 in0.0 mm 0.04 in1.0 mm
03:20 PM 62.4°F16.9°C 52.5°F11.4°C 70% 13.7 mph S22.0 kmh S 17.5 mph28.2 kmh 29.44 in997.0 mb 0.00 in0.0 mm 0.00 in0.0 mm 0.04 in1.0 mm
03:30 PM 56.8°F13.8°C 48.3°F9.1°C 73% 15.3 mph S24.6 kmh S 16.7 mph26.9 kmh 29.47 in998.0 mb 0.06 in1.5 mm 0.36 in9.1 mm 0.09 in2.3 mm
03:40 PM 53.6°F12.0°C 47.2°F8.4°C 79% 11.6 mph SSW18.7 kmh SSW 11.8 mph19.0 kmh 29.46 in997.6 mb 0.08 in2.0 mm 0.12 in3.0 mm 0.12 in3.0 mm
03:50 PM 52.7°F11.5°C 48.6°F9.2°C 86% 7.1 mph WSW11.4 kmh WSW 9.1 mph14.6 kmh 29.46 in997.6 mb 0.09 in2.3 mm 0.06 in1.5 mm 0.13 in3.3 mm
04:00 PM 52.7°F11.5°C 49.5°F9.7°C 89% 8.6 mph SW13.8 kmh SW 9.1 mph14.6 kmh 29.46 in997.6 mb 0.09 in2.3 mm 0.00 in0.0 mm 0.13 in3.3 mm
04:10 PM 53.2°F11.8°C 50.4°F10.2°C 90% 6.1 mph SE9.8 kmh SE 6.6 mph10.6 kmh 29.46 in997.6 mb 0.09 in2.3 mm 0.00 in0.0 mm 0.13 in3.3 mm
04:20 PM 53.6°F12.0°C 50.1°F10.1°C 88% 6.9 mph SW11.1 kmh SW 10.8 mph17.4 kmh 29.47 in998.0 mb 0.09 in2.3 mm 0.00 in0.0 mm 0.13 in3.3 mm
04:30 PM 54.3°F12.4°C 50.8°F10.4°C 88% 8.9 mph S14.3 kmh S 10.8 mph17.4 kmh 29.47 in998.0 mb 0.04 in1.0 mm 0.00 in0.0 mm 0.13 in3.3 mm
04:40 PM 54.7°F12.6°C 51.2°F10.7°C 88% 8.9 mph S14.3 kmh S 11.8 mph19.0 kmh 29.48 in998.3 mb 0.01 in0.3 mm 0.00 in0.0 mm 0.13 in3.3 mm
04:50 PM 54.9°F12.7°C 51.1°F10.6°C 87% 7.9 mph SW12.7 kmh SW 10.1 mph16.3 kmh 29.47 in998.0 mb 0.00 in0.0 mm 0.00 in0.0 mm 0.13 in3.3 mm
05:00 PM 55.0°F12.8°C 51.2°F10.7°C 87% 6.6 mph WSW10.6 kmh WSW 8.4 mph13.5 kmh 29.48 in998.3 mb 0.00 in0.0 mm 0.00 in0.0 mm 0.13 in3.3 mm
05:10 PM 55.2°F12.9°C 51.4°F10.8°C 87% 6.5 mph SSW10.5 kmh SSW 8.4 mph13.5 kmh 29.48 in998.3 mb 0.00 in0.0 mm 0.00 in0.0 mm 0.13 in3.3 mm
05:20 PM 55.8°F13.2°C 51.9°F11.1°C 87% 7.7 mph SSW12.4 kmh SSW 13.3 mph21.4 kmh 29.49 in998.6 mb 0.00 in0.0 mm 0.00 in0.0 mm 0.13 in3.3 mm
05:30 PM 55.6°F13.1°C 51.5°F10.8°C 86% 7.8 mph SW12.6 kmh SW 10.1 mph16.3 kmh 29.49 in998.6 mb 0.00 in0.0 mm 0.00 in0.0 mm 0.13 in3.3 mm
05:40 PM 55.2°F12.9°C 50.5°F10.3°C 84% 7.5 mph WSW12.1 kmh WSW 12.5 mph20.1 kmh 29.49 in998.6 mb 0.00 in0.0 mm 0.00 in0.0 mm 0.13 in3.3 mm
05:50 PM 54.7°F12.6°C 49.9°F9.9°C 84% 4.6 mph WSW7.4 kmh WSW 5.9 mph9.5 kmh 29.50 in999.0 mb 0.00 in0.0 mm 0.00 in0.0 mm 0.13 in3.3 mm
06:00 PM 54.5°F12.5°C 49.8°F9.9°C 84% 5.6 mph SSW9.0 kmh SSW 7.6 mph12.2 kmh 29.50 in999.0 mb 0.00 in0.0 mm 0.00 in0.0 mm 0.13 in3.3 mm
06:10 PM 54.5°F12.5°C 50.1°F10.1°C 85% 8.3 mph SW13.4 kmh SW 7.6 mph12.2 kmh 29.51 in999.3 mb 0.00 in0.0 mm 0.00 in0.0 mm 0.13 in3.3 mm
06:20 PM 54.7°F12.6°C 50.6°F10.3°C 86% 8.6 mph S13.8 kmh S 12.5 mph20.1 kmh 29.51 in999.3 mb 0.00 in0.0 mm 0.00 in0.0 mm 0.13 in3.3 mm
06:30 PM 54.5°F12.5°C 50.4°F10.2°C 86% 8.4 mph S13.5 kmh S 10.8 mph17.4 kmh 29.51 in999.3 mb 0.00 in0.0 mm 0.00 in0.0 mm 0.13 in3.3 mm
06:40 PM 54.5°F12.5°C 50.4°F10.2°C 86% 7.8 mph NNW12.6 kmh NNW 8.4 mph13.5 kmh 29.52 in999.7 mb 0.00 in0.0 mm 0.00 in0.0 mm 0.13 in3.3 mm
06:50 PM 54.5°F12.5°C 50.4°F10.2°C 86% 8.8 mph S14.2 kmh S 9.1 mph14.6 kmh 29.53 in1000.0 mb 0.00 in0.0 mm 0.00 in0.0 mm 0.13 in3.3 mm
07:00 PM 54.5°F12.5°C 50.1°F10.1°C 85% 7.9 mph SSE12.7 kmh SSE 9.1 mph14.6 kmh 29.53 in1000.0 mb 0.00 in0.0 mm 0.00 in0.0 mm 0.13 in3.3 mm
07:10 PM 54.5°F12.5°C 50.1°F10.1°C 85% 6.6 mph SSW10.6 kmh SSW 6.6 mph10.6 kmh 29.53 in1000.0 mb 0.00 in0.0 mm 0.00 in0.0 mm 0.13 in3.3 mm
07:20 PM 54.3°F12.4°C 49.9°F9.9°C 85% 6.4 mph SW10.3 kmh SW 8.4 mph13.5 kmh 29.54 in1000.3 mb 0.00 in0.0 mm 0.00 in0.0 mm 0.13 in3.3 mm
07:30 PM 54.1°F12.3°C 49.4°F9.7°C 84% 6.4 mph S10.3 kmh S 9.1 mph14.6 kmh 29.55 in1000.7 mb 0.00 in0.0 mm 0.00 in0.0 mm 0.13 in3.3 mm
07:40 PM 54.1°F12.3°C 49.4°F9.7°C 84% 7.0 mph SW11.3 kmh SW 7.6 mph12.2 kmh 29.55 in1000.7 mb 0.00 in0.0 mm 0.00 in0.0 mm 0.13 in3.3 mm
07:50 PM 54.0°F12.2°C 49.2°F9.6°C 84% 6.4 mph SSW10.3 kmh SSW 6.6 mph10.6 kmh 29.55 in1000.7 mb 0.00 in0.0 mm 0.00 in0.0 mm 0.13 in3.3 mm
08:00 PM 54.0°F12.2°C 49.2°F9.6°C 84% 5.1 mph SW8.2 kmh SW 5.9 mph9.5 kmh 29.56 in1001.0 mb 0.00 in0.0 mm 0.00 in0.0 mm 0.13 in3.3 mm
08:10 PM 53.8°F12.1°C 49.1°F9.5°C 84% 6.1 mph WNW9.8 kmh WNW 6.6 mph10.6 kmh 29.55 in1000.7 mb 0.00 in0.0 mm 0.00 in0.0 mm 0.13 in3.3 mm
08:20 PM 53.8°F12.1°C 49.1°F9.5°C 84% 7.5 mph NNE12.1 kmh NNE 8.4 mph13.5 kmh 29.56 in1001.0 mb 0.00 in0.0 mm 0.00 in0.0 mm 0.13 in3.3 mm
08:30 PM 53.8°F12.1°C 49.1°F9.5°C 84% 7.6 mph S12.2 kmh S 6.6 mph10.6 kmh 29.57 in1001.4 mb 0.00 in0.0 mm 0.00 in0.0 mm 0.13 in3.3 mm
08:40 PM 53.6°F12.0°C 48.6°F9.2°C 83% 7.6 mph S12.2 kmh S 8.4 mph13.5 kmh 29.57 in1001.4 mb 0.00 in0.0 mm 0.00 in0.0 mm 0.13 in3.3 mm
08:50 PM 53.2°F11.8°C 49.5°F9.7°C 87% 5.6 mph S9.0 kmh S 5.9 mph9.5 kmh 29.57 in1001.4 mb 0.00 in0.0 mm 0.00 in0.0 mm 0.13 in3.3 mm
09:00 PM 53.1°F11.7°C 49.3°F9.6°C 87% 5.6 mph S9.0 kmh S 6.6 mph10.6 kmh 29.58 in1001.7 mb 0.00 in0.0 mm 0.00 in0.0 mm 0.13 in3.3 mm
09:10 PM 53.1°F11.7°C 49.3°F9.6°C 87% 6.4 mph S10.3 kmh S 8.4 mph13.5 kmh 29.58 in1001.7 mb 0.00 in0.0 mm 0.00 in0.0 mm 0.13 in3.3 mm
09:20 PM 52.7°F11.5°C 48.9°F9.4°C 87% 5.5 mph SSW8.9 kmh SSW 6.6 mph10.6 kmh 29.58 in1001.7 mb 0.00 in0.0 mm 0.00 in0.0 mm 0.13 in3.3 mm
09:30 PM 52.5°F11.4°C 48.8°F9.3°C 87% 4.7 mph S7.6 kmh S 5.9 mph9.5 kmh 29.59 in1002.0 mb 0.00 in0.0 mm 0.00 in0.0 mm 0.13 in3.3 mm
09:40 PM 52.3°F11.3°C 48.9°F9.4°C 88% 5.7 mph SW9.2 kmh SW 9.1 mph14.6 kmh 29.59 in1002.0 mb 0.00 in0.0 mm 0.00 in0.0 mm 0.13 in3.3 mm
09:50 PM 52.5°F11.4°C 49.1°F9.5°C 88% 5.0 mph SSW8.0 kmh SSW 6.6 mph10.6 kmh 29.59 in1002.0 mb 0.00 in0.0 mm 0.00 in0.0 mm 0.13 in3.3 mm
10:00 PM 52.5°F11.4°C 49.1°F9.5°C 88% 4.8 mph WNW7.7 kmh WNW 4.9 mph7.9 kmh 29.59 in1002.0 mb 0.00 in0.0 mm 0.00 in0.0 mm 0.13 in3.3 mm
10:10 PM 52.5°F11.4°C 48.8°F9.3°C 87% 3.9 mph SSW6.3 kmh SSW 5.9 mph9.5 kmh 29.59 in1002.0 mb 0.00 in0.0 mm 0.00 in0.0 mm 0.13 in3.3 mm
10:20 PM 52.5°F11.4°C 48.8°F9.3°C 87% 4.9 mph SW7.9 kmh SW 6.6 mph10.6 kmh 29.60 in1002.4 mb 0.00 in0.0 mm 0.00 in0.0 mm 0.13 in3.3 mm
10:30 PM 52.3°F11.3°C 48.6°F9.2°C 87% 4.3 mph S6.9 kmh S 6.6 mph10.6 kmh 29.60 in1002.4 mb 0.00 in0.0 mm 0.00 in0.0 mm 0.13 in3.3 mm
10:40 PM 52.5°F11.4°C 48.8°F9.3°C 87% 6.3 mph S10.1 kmh S 6.6 mph10.6 kmh 29.60 in1002.4 mb 0.00 in0.0 mm 0.00 in0.0 mm 0.13 in3.3 mm
10:50 PM 52.5°F11.4°C 48.5°F9.2°C 86% 5.9 mph WSW9.5 kmh WSW 8.4 mph13.5 kmh 29.61 in1002.7 mb 0.00 in0.0 mm 0.00 in0.0 mm 0.13 in3.3 mm
11:00 PM 52.3°F11.3°C 48.3°F9.1°C 86% 6.6 mph SSE10.6 kmh SSE 8.4 mph13.5 kmh 29.61 in1002.7 mb 0.00 in0.0 mm 0.00 in0.0 mm 0.12 in3.0 mm
11:10 PM 52.3°F11.3°C 48.3°F9.1°C 86% 7.4 mph S11.9 kmh S 11.8 mph19.0 kmh 29.61 in1002.7 mb 0.00 in0.0 mm 0.00 in0.0 mm 0.12 in3.0 mm
11:20 PM 52.3°F11.3°C 48.3°F9.1°C 86% 6.6 mph SW10.6 kmh SW 8.4 mph13.5 kmh 29.61 in1002.7 mb 0.00 in0.0 mm 0.00 in0.0 mm 0.12 in3.0 mm
11:30 PM 52.2°F11.2°C 48.4°F9.1°C 87% 7.6 mph SW12.2 kmh SW 10.8 mph17.4 kmh 29.61 in1002.7 mb 0.00 in0.0 mm 0.00 in0.0 mm 0.12 in3.0 mm
11:40 PM 52.2°F11.2°C 48.4°F9.1°C 87% 7.1 mph SW11.4 kmh SW 9.1 mph14.6 kmh 29.61 in1002.7 mb 0.00 in0.0 mm 0.00 in0.0 mm 0.12 in3.0 mm
11:50 PM 52.2°F11.2°C 48.4°F9.1°C 87% 7.2 mph SW11.6 kmh SW 8.4 mph13.5 kmh 29.61 in1002.7 mb 0.00 in0.0 mm 0.00 in0.0 mm 0.12 in3.0 mm